To NAV CANADA Home Page Login to a new session Search on AWWS site Disclaimer Vers la page française équivalente Tips FAQ What's new on the site To the Forecasts and Observations / NOTAM section To "File a Flight Plan" website Publications and other links Update of the User's profile FIC Telephone Numbers My Weather Data Folder Route Weather Data Regional Weather Data Local Weather Data To the Forecasts and Observations / NOTAM section
Request Generated 04/12/2021 at 03:24:21 UTC . Weather information available at that time is displayed.

METAR/TAF

TORONTO/LESTER B. PEARSON INTL/ON    

METAR CYYZ 120300Z 10010G17KT 10SM SCT009 BKN072 OVC140 13/12 A2955 RMK CF3AC3AC2 SLP008 DENSITY ALT 900FT=
SPECI CYYZ 120231Z 09013G19KT 10SM SCT008 BKN085 BKN140 13/12 A2954 RMK SC3AC3AC1 SLP006 DENSITY ALT 900FT=
METAR CYYZ 120200Z 08016KT 8SM -RA OVC005 13/13 A2954 RMK SC8 SLP007 DENSITY ALT 900FT=
SPECI CYYZ 120123Z 07012G20KT 8SM -RA BKN006 OVC060 13/13 A2954 RMK SC7SC1 SLP006 DENSITY ALT 900FT=
METAR CYYZ 120100Z 07012KT 8SM -RA SCT005 OVC076 13/13 A2954 RMK CF3AC5 SLP006 DENSITY ALT 900FT=

TAF CYYZ 120242Z 1203/1306 09012G22KT 6SM BR SCT008 OVC050 TEMPO
1203/1205 2SM -RA -DZ BR BKN008 OVC050 PROB30 1203/1205 3/4SM
-DZ BR OVC003
FM120500 08012G22KT 6SM -RA BR OVC005 TEMPO 1205/1211 11/2SM -RA
BR OVC003 PROB40 1205/1211 3/4SM -DZ BR
FM121100 07012KT 3SM -RA BR OVC004 PROB30 1211/1216 11/2SM SHRA
BR OVC003
FM121800 07010KT 5SM -RA -DZ BR OVC005
FM130300 08008KT 2SM -DZ BR OVC003
RMK NXT FCST BY 120600Z=
Your time UTC time
Weather data provided by Environment Canada and NAV CANADA